createdAt,value
2023-03-19T00:01:20.720Z,98711.13
2023-03-19T00:06:23.186Z,98717.78
2023-03-19T00:11:25.978Z,98702.47
2023-03-19T00:16:28.425Z,98600.53
2023-03-19T00:21:32.363Z,98653.38
2023-03-19T00:26:36.239Z,98709.66
2023-03-19T00:31:38.726Z,98699.47
2023-03-19T00:36:40.960Z,98735.25
2023-03-19T00:41:50.575Z,98701.31
2023-03-19T00:46:52.996Z,98695.13
2023-03-19T00:51:55.323Z,98645.47
2023-03-19T00:56:57.504Z,98676.22
2023-03-19T01:02:00.488Z,98693.56
2023-03-19T01:07:02.725Z,98639.97
2023-03-19T01:12:05.758Z,98667.56
2023-03-19T01:17:08.533Z,98705.81
2023-03-19T01:22:11.071Z,98785.03
2023-03-19T01:27:15.012Z,98710.94
2023-03-19T01:32:17.178Z,98731.03
2023-03-19T01:37:48.347Z,98832.34
2023-03-19T01:43:19.254Z,98772.78
2023-03-19T01:48:49.245Z,98742.44
2023-03-19T01:54:01.411Z,98780.69
2023-03-19T01:59:45.816Z,98760.56
2023-03-19T02:05:25.602Z,98740.84
2023-03-19T02:10:31.578Z,98771.63
2023-03-19T02:15:34.044Z,98790.50
2023-03-19T02:21:08.198Z,98769.97
2023-03-19T02:26:17.601Z,98806.25
2023-03-19T02:31:22.440Z,98815.66
2023-03-19T02:36:24.981Z,98764.34
2023-03-19T02:41:27.434Z,98790.34
2023-03-19T02:46:29.928Z,98789.59
2023-03-19T02:51:32.266Z,98691.97
2023-03-19T02:56:34.805Z,98771.63
2023-03-19T03:01:37.612Z,98788.53
2023-03-19T03:06:39.983Z,98705.41
2023-03-19T03:11:42.414Z,98649.44
2023-03-19T03:16:45.006Z,98715.56
2023-03-19T03:21:47.355Z,98765.28
2023-03-19T03:26:49.871Z,98750.28
2023-03-19T03:31:52.446Z,98749.44
2023-03-19T03:36:54.819Z,98777.91
2023-03-19T03:41:57.226Z,98768.81
2023-03-19T03:47:00.311Z,98812.19
2023-03-19T03:52:03.872Z,98755.78
2023-03-19T03:57:06.782Z,98816.88
2023-03-19T04:02:09.459Z,98733.13
2023-03-19T04:07:12.422Z,98767.03
2023-03-19T04:12:18.284Z,98844.81
2023-03-19T04:17:22.481Z,98838.88
2023-03-19T04:22:24.846Z,98777.25
2023-03-19T04:27:27.927Z,98816.03
2023-03-19T04:32:30.517Z,98831.94
2023-03-19T04:37:33.164Z,98773.59
2023-03-19T04:42:35.809Z,98824.88
2023-03-19T04:47:54.625Z,98861.91
2023-03-19T04:52:57.038Z,98750.81
2023-03-19T04:58:01.502Z,98756.06
2023-03-19T05:03:06.567Z,98712.13
2023-03-19T05:08:10.510Z,98838.47
2023-03-19T05:13:13.022Z,98834.97
2023-03-19T05:18:22.508Z,98782.78
2023-03-19T05:23:24.975Z,98858.84
2023-03-19T05:28:33.068Z,98808.03
2023-03-19T05:33:37.469Z,98750.78
2023-03-19T05:38:41.044Z,98864.31
2023-03-19T05:43:49.443Z,98874.34
2023-03-19T05:49:07.414Z,98844.53
2023-03-19T05:54:09.924Z,98823.78
2023-03-19T05:59:21.040Z,98815.63
2023-03-19T06:04:35.183Z,98801.19
2023-03-19T06:09:38.064Z,98797.19
2023-03-19T06:14:40.822Z,98905.66
2023-03-19T06:20:06.563Z,98876.34
2023-03-19T06:25:09.278Z,98843.50
2023-03-19T06:30:14.005Z,98921.56
2023-03-19T06:35:16.835Z,98958.34
2023-03-19T06:40:20.995Z,98947.03
2023-03-19T06:45:23.334Z,98941.91
2023-03-19T06:50:26.114Z,98941.25
2023-03-19T06:55:28.432Z,98928.69
2023-03-19T07:00:30.919Z,98981.47
2023-03-19T07:05:33.336Z,98972.75
2023-03-19T07:10:37.122Z,98985.28
2023-03-19T07:15:39.644Z,98941.50
2023-03-19T07:20:41.988Z,98955.06
2023-03-19T07:25:44.243Z,98927.22
2023-03-19T07:30:46.502Z,98937.75
2023-03-19T07:35:48.910Z,98998.81
2023-03-19T07:41:01.398Z,99017.84
2023-03-19T07:46:05.085Z,99057.13
2023-03-19T07:51:07.361Z,99015.41
2023-03-19T07:56:10.866Z,99055.66
2023-03-19T08:01:13.941Z,99120.41
2023-03-19T08:06:16.279Z,99090.59
2023-03-19T08:11:18.638Z,99057.38
2023-03-19T08:16:21.453Z,99088.22
2023-03-19T08:21:23.968Z,99066.94
2023-03-19T08:26:26.453Z,99046.41
2023-03-19T08:31:28.794Z,99104.84
2023-03-19T08:36:31.999Z,99126.56
2023-03-19T08:41:34.314Z,99114.31
2023-03-19T08:46:36.816Z,99087.47
2023-03-19T08:51:39.245Z,99036.09
2023-03-19T08:56:41.582Z,99083.13
2023-03-19T09:01:44.458Z,99080.38
2023-03-19T09:06:51.089Z,99157.81
2023-03-19T09:11:53.259Z,99134.09
2023-03-19T09:16:55.830Z,99104.84
2023-03-19T09:21:58.280Z,99146.72
2023-03-19T09:27:00.569Z,99185.44
2023-03-19T09:32:03.029Z,99171.88
2023-03-19T09:37:06.162Z,99112.25
2023-03-19T09:42:37.068Z,99151.41
2023-03-19T09:47:39.673Z,99145.88
2023-03-19T09:53:03.760Z,99134.03
2023-03-19T09:58:16.010Z,99175.53
2023-03-19T10:03:55.731Z,99149.00
2023-03-19T10:09:03.606Z,99125.19
2023-03-19T10:14:42.755Z,99146.59
2023-03-19T10:19:53.862Z,99197.22
2023-03-19T10:24:58.469Z,99173.84
2023-03-19T10:30:00.676Z,99142.69
2023-03-19T10:35:20.627Z,99220.03
2023-03-19T10:40:44.763Z,99192.69
2023-03-19T10:45:49.184Z,99171.38
2023-03-19T10:51:01.027Z,99194.72
2023-03-19T10:56:23.355Z,99197.53
2023-03-19T11:01:38.388Z,99164.56
2023-03-19T11:06:41.289Z,99104.50
2023-03-19T11:12:01.307Z,99205.59
2023-03-19T11:17:24.406Z,99103.63
2023-03-19T11:22:32.835Z,99120.19
2023-03-19T11:27:36.752Z,99108.41
2023-03-19T11:33:22.013Z,99115.56
2023-03-19T11:38:54.095Z,99131.22
2023-03-19T11:44:07.364Z,99177.75
2023-03-19T11:49:27.754Z,99126.25
2023-03-19T11:54:50.253Z,99119.91
2023-03-19T12:00:39.368Z,99147.44
2023-03-19T12:06:01.470Z,99156.03
2023-03-19T12:11:54.491Z,99099.19
2023-03-19T12:17:24.121Z,99104.88
2023-03-19T12:22:57.067Z,99133.03
2023-03-19T12:28:04.626Z,99120.28
2023-03-19T12:33:46.698Z,99092.06
2023-03-19T12:38:55.553Z,99051.34
2023-03-19T12:44:51.207Z,99080.16
2023-03-19T12:50:12.418Z,99067.34
2023-03-19T12:55:43.387Z,99082.34
2023-03-19T13:01:07.449Z,99071.19
2023-03-19T13:06:55.726Z,99041.97
2023-03-19T13:12:05.390Z,99049.81
2023-03-19T13:17:54.178Z,99081.63
2023-03-19T13:23:02.040Z,99055.16
2023-03-19T13:28:11.112Z,99027.28
2023-03-19T13:33:22.961Z,99014.28
2023-03-19T13:38:39.577Z,99109.00
2023-03-19T13:43:43.864Z,99067.75
2023-03-19T13:48:46.045Z,99051.34
2023-03-19T13:54:16.313Z,99078.69
2023-03-19T13:59:36.218Z,99061.47
2023-03-19T14:04:38.870Z,99044.47
2023-03-19T14:09:45.273Z,99094.97
2023-03-19T14:15:00.148Z,99071.22
2023-03-19T14:20:12.766Z,98997.22
2023-03-19T14:25:26.105Z,99008.44
2023-03-19T14:30:44.787Z,98983.56
2023-03-19T14:35:48.506Z,99006.47
2023-03-19T14:40:54.285Z,98938.94
2023-03-19T14:46:01.513Z,98949.97
2023-03-19T14:51:26.910Z,99031.34
2023-03-19T14:56:36.758Z,98968.56
2023-03-19T15:01:50.220Z,99077.13
2023-03-19T15:06:59.234Z,99019.81
2023-03-19T15:12:55.011Z,99000.13
2023-03-19T15:18:04.696Z,99109.47
2023-03-19T15:23:25.748Z,99095.59
2023-03-19T15:28:34.495Z,99058.78
2023-03-19T15:33:44.066Z,99100.78
2023-03-19T15:38:51.023Z,99015.88
2023-03-19T15:43:54.431Z,99074.72
2023-03-19T15:49:17.398Z,99088.97
2023-03-19T15:54:21.237Z,99022.63
2023-03-19T15:59:30.133Z,99079.53
2023-03-19T16:04:45.596Z,99118.25
2023-03-19T16:09:55.633Z,99031.31
2023-03-19T16:14:57.923Z,99088.22
2023-03-19T16:20:06.366Z,99125.72
2023-03-19T16:25:19.352Z,99108.00
2023-03-19T16:30:25.755Z,99161.72
2023-03-19T16:35:32.809Z,99139.59
2023-03-19T16:40:47.093Z,99051.09
2023-03-19T16:46:06.236Z,99156.19
2023-03-19T16:51:19.179Z,99084.28
2023-03-19T16:56:21.600Z,99134.91
2023-03-19T17:01:26.077Z,99173.66
2023-03-19T17:06:31.631Z,99117.13
2023-03-19T17:11:40.036Z,99065.28
2023-03-19T17:16:47.797Z,99159.00
2023-03-19T17:21:53.626Z,99142.81
2023-03-19T17:26:59.702Z,99092.22
2023-03-19T17:32:04.255Z,99115.13
2023-03-19T17:37:17.155Z,99100.09
2023-03-19T17:42:24.033Z,99100.09
2023-03-19T17:47:26.348Z,99152.22
2023-03-19T17:52:30.444Z,99137.91
2023-03-19T17:57:32.841Z,99094.50
2023-03-19T18:02:36.381Z,99181.00
2023-03-19T18:07:38.768Z,99185.28
2023-03-19T18:12:41.046Z,99221.47
2023-03-19T18:17:49.395Z,99221.53
2023-03-19T18:22:52.009Z,99231.97
2023-03-19T18:27:55.116Z,99125.44
2023-03-19T18:33:01.131Z,99171.16
2023-03-19T18:38:04.329Z,99194.75
2023-03-19T18:43:07.445Z,99211.69
2023-03-19T18:48:28.120Z,99172.56
2023-03-19T18:53:30.468Z,99228.44
2023-03-19T18:58:32.678Z,99221.03
2023-03-19T19:03:35.756Z,99191.19
2023-03-19T19:08:37.862Z,99197.09
2023-03-19T19:13:55.266Z,99198.34
2023-03-19T19:18:58.304Z,99172.38
2023-03-19T19:24:00.446Z,99244.91
2023-03-19T19:29:03.266Z,99253.19
2023-03-19T19:34:05.584Z,99242.16
2023-03-19T19:39:07.857Z,99244.34
2023-03-19T19:44:20.951Z,99194.19
2023-03-19T19:49:24.826Z,99189.66
2023-03-19T19:54:27.064Z,99240.28
2023-03-19T19:59:29.259Z,99247.78
2023-03-19T20:04:31.546Z,99210.66
2023-03-19T20:09:33.682Z,99183.44
2023-03-19T20:14:35.960Z,99260.50
2023-03-19T20:19:38.211Z,99255.47
2023-03-19T20:24:40.623Z,99174.28
2023-03-19T20:29:42.964Z,99270.00
2023-03-19T20:34:45.524Z,99285.13
2023-03-19T20:39:47.803Z,99255.75
2023-03-19T20:44:58.365Z,99231.78
2023-03-19T20:50:01.148Z,99197.88
2023-03-19T20:55:03.488Z,99267.72
2023-03-19T21:00:28.307Z,99285.13
2023-03-19T21:05:39.612Z,99269.22
2023-03-19T21:10:44.558Z,99293.28
2023-03-19T21:15:49.566Z,99247.69
2023-03-19T21:20:57.059Z,99270.69
2023-03-19T21:26:16.727Z,99271.53
2023-03-19T21:31:20.975Z,99300.78
2023-03-19T21:36:23.361Z,99260.63
2023-03-19T21:41:33.496Z,99267.69
2023-03-19T21:46:36.094Z,99278.38
2023-03-19T21:51:38.504Z,99307.09
2023-03-19T21:56:43.391Z,99277.72
2023-03-19T22:01:46.737Z,99289.63
2023-03-19T22:06:50.808Z,99347.16
2023-03-19T22:11:53.055Z,99343.81
2023-03-19T22:16:57.198Z,99337.28
2023-03-19T22:21:59.607Z,99376.50
2023-03-19T22:27:02.002Z,99362.91
2023-03-19T22:32:04.342Z,99319.69
2023-03-19T22:37:26.332Z,99313.16
2023-03-19T22:42:28.606Z,99397.63
2023-03-19T22:47:35.845Z,99357.25
2023-03-19T22:52:38.179Z,99428.94
2023-03-19T22:57:40.809Z,99400.56
2023-03-19T23:02:43.323Z,99409.69
2023-03-19T23:07:45.687Z,99407.47
2023-03-19T23:12:48.113Z,99330.69
2023-03-19T23:17:55.499Z,99428.94
2023-03-19T23:22:57.721Z,99396.69
2023-03-19T23:28:03.187Z,99417.81
2023-03-19T23:33:05.988Z,99390.31
2023-03-19T23:38:09.423Z,99411.72
2023-03-19T23:43:23.205Z,99392.28
2023-03-19T23:48:32.941Z,99383.38
2023-03-19T23:53:35.175Z,99363.63
2023-03-19T23:58:43.030Z,99419.13
